Time;durP1;ratioP1;P1;durP2;ratioP2;P2;SDS_P1;SDS_P2;PMS_P1;PMS_P2;Temp;Humidity;BMP_temperature;BMP_pressure;BME280_temperature;BME280_humidity;BME280_pressure;Samples;Min_cycle;Max_cycle;Signal;HPM_P1;HPM_P2
2023/09/03 00:00:30;;;;;;;;;;;;;;;;;;5066727;28;20280;-61
2023/09/03 00:02:56;;;;;;;;;;;;;;;;;;5068235;28;20401;-61
2023/09/03 00:05:22;;;;;;;;;;;;;;;;;;5068388;28;19993;-61
2023/09/03 00:07:48;;;;;;;;;;;;;;;;;;5067427;28;19928;-61
2023/09/03 00:10:14;;;;;;;;;;;;;;;;;;5069278;28;19920;-62
2023/09/03 00:12:40;;;;;;;;;;;;;;;;;;5068799;28;20348;-62
2023/09/03 00:15:06;;;;;;;;;;;;;;;;;;5066827;28;19924;-61
2023/09/03 00:17:32;;;;;;;;;;;;;;;;;;5069520;28;19927;-61
2023/09/03 00:19:58;;;;;;;;;;;;;;;;;;5048143;28;20322;-62
2023/09/03 00:22:24;;;;;;;;;;;;;;;;;;5066669;28;19920;-61
2023/09/03 00:24:50;;;;;;;;;;;;;;;;;;5067151;28;20360;-61
2023/09/03 00:27:15;;;;;;;;;;;;;;;;;;5068597;28;19921;-61
2023/09/03 00:29:41;;;;;;;;;;;;;;;;;;5068117;28;19954;-61
2023/09/03 00:32:07;;;;;;;;;;;;;;;;;;5068832;28;19924;-61
2023/09/03 00:34:33;;;;;;;;;;;;;;;;;;5070398;28;19931;-61
2023/09/03 00:36:59;;;;;;;;;;;;;;;;;;5067208;28;19924;-61
2023/09/03 00:39:25;;;;;;;;;;;;;;;;;;5051605;28;20447;-61
2023/09/03 00:41:51;;;;;;;;;;;;;;;;;;5065607;28;19990;-61
2023/09/03 00:44:17;;;;;;;;;;;;;;;;;;5066490;28;19978;-61
2023/09/03 00:46:43;;;;;;;;;;;;;;;;;;5067297;28;19936;-61
2023/09/03 00:49:10;;;;;;;;;;;;;;;;;;5068150;28;20399;-61
2023/09/03 00:51:36;;;;;;;;;;;;;;;;;;5065564;28;20407;-61
2023/09/03 00:54:02;;;;;;;;;;;;;;;;;;5068497;28;20014;-61
2023/09/03 00:56:28;;;;;;;;;;;;;;;;;;5068696;28;20012;-61
2023/09/03 00:58:54;;;;;;;;;;;;;;;;;;5047056;28;20369;-61
2023/09/03 01:01:20;;;;;;;;;;;;;;;;;;5068422;28;19925;-61
2023/09/03 01:03:46;;;;;;;;;;;;;;;;;;5059434;28;20455;-61
2023/09/03 01:06:11;;;;;;;;;;;;;;;;;;5062092;28;19967;-61
2023/09/03 01:08:37;;;;;;;;;;;;;;;;;;5067366;28;19933;-61
2023/09/03 01:11:04;;;;;;;;;;;;;;;;;;5068113;28;20350;-62
2023/09/03 01:13:29;;;;;;;;;;;;;;;;;;5059603;28;20039;-61
2023/09/03 01:15:55;;;;;;;;;;;;;;;;;;5068796;28;20003;-61
2023/09/03 01:18:21;;;;;;;;;;;;;;;;;;5067823;28;19986;-61
2023/09/03 01:20:48;;;;;;;;;;;;;;;;;;5070395;28;19920;-61
2023/09/03 01:23:14;;;;;;;;;;;;;;;;;;5066093;28;20354;-61
2023/09/03 01:25:40;;;;;;;;;;;;;;;;;;5070245;28;19928;-62
2023/09/03 01:28:06;;;;;;;;;;;;;;;;;;5067469;28;20298;-61
2023/09/03 01:30:32;;;;;;;;;;;;;;;;;;5068316;28;19936;-61
2023/09/03 01:32:58;;;;;;;;;;;;;;;;;;5067396;28;20600;-62
2023/09/03 01:35:23;;;;;;;;;;;;;;;;;;5068760;28;19931;-61
2023/09/03 01:37:49;;;;;;;;;;;;;;;;;;5064516;28;19959;-61
2023/09/03 01:40:15;;;;;;;;;;;;;;;;;;5064733;28;19969;-61
2023/09/03 01:42:42;;;;;;;;;;;;;;;;;;5067287;28;20354;-61
2023/09/03 01:45:08;;;;;;;;;;;;;;;;;;5062775;28;19921;-62
2023/09/03 01:47:34;;;;;;;;;;;;;;;;;;5062926;28;20332;-61
2023/09/03 01:49:59;;;;;;;;;;;;;;;;;;5066366;28;19925;-61
2023/09/03 01:52:25;;;;;;;;;;;;;;;;;;5069880;28;19935;-61
2023/09/03 01:54:51;;;;;;;;;;;;;;;;;;5067361;28;20370;-62
2023/09/03 01:57:17;;;;;;;;;;;;;;;;;;5068290;28;19927;-61
2023/09/03 01:59:43;;;;;;;;;;;;;;;;;;5071586;28;19928;-61
2023/09/03 02:02:09;;;;;;;;;;;;;;;;;;5071412;28;20007;-61
2023/09/03 02:04:35;;;;;;;;;;;;;;;;;;5054292;28;20015;-61
2023/09/03 02:07:01;;;;;;;;;;;;;;;;;;5070985;28;20420;-61
2023/09/03 02:09:27;;;;;;;;;;;;;;;;;;5068851;28;19940;-61
2023/09/03 02:11:52;;;;;;;;;;;;;;;;;;5071607;28;20344;-61
2023/09/03 02:14:18;;;;;;;;;;;;;;;;;;5073781;28;19932;-61
2023/09/03 02:16:44;;;;;;;;;;;;;;;;;;5067231;28;19963;-61
2023/09/03 02:19:10;;;;;;;;;;;;;;;;;;5071405;28;20405;-61
2023/09/03 02:21:36;;;;;;;;;;;;;;;;;;5072552;28;19924;-61
2023/09/03 02:24:02;;;;;;;;;;;;;;;;;;5055822;28;20304;-61
2023/09/03 02:26:28;;;;;;;;;;;;;;;;;;5067199;28;19928;-61
2023/09/03 02:28:54;;;;;;;;;;;;;;;;;;5071807;28;20361;-61
2023/09/03 02:31:20;;;;;;;;;;;;;;;;;;5069412;28;20396;-61
2023/09/03 02:33:45;;;;;;;;;;;;;;;;;;5054278;28;19968;-61
2023/09/03 02:36:11;;;;;;;;;;;;;;;;;;5067617;28;19920;-61
2023/09/03 02:38:37;;;;;;;;;;;;;;;;;;5071256;28;19924;-61
2023/09/03 02:41:03;;;;;;;;;;;;;;;;;;5063715;28;19921;-61
2023/09/03 02:43:29;;;;;;;;;;;;;;;;;;5066998;28;19972;-61
2023/09/03 02:45:55;;;;;;;;;;;;;;;;;;5070325;28;19927;-62
2023/09/03 02:48:21;;;;;;;;;;;;;;;;;;5072375;28;20331;-62
2023/09/03 02:50:47;;;;;;;;;;;;;;;;;;5079222;28;19920;-62
2023/09/03 02:53:13;;;;;;;;;;;;;;;;;;5083271;28;19969;-62
2023/09/03 02:55:39;;;;;;;;;;;;;;;;;;5079125;28;20391;-62
2023/09/03 02:58:05;;;;;;;;;;;;;;;;;;5074892;28;19927;-62
2023/09/03 03:00:31;;;;;;;;;;;;;;;;;;5082756;28;19925;-62
2023/09/03 03:02:56;;;;;;;;;;;;;;;;;;5076230;28;19925;-62
2023/09/03 03:05:22;;;;;;;;;;;;;;;;;;5074992;28;19927;-62
2023/09/03 03:07:48;;;;;;;;;;;;;;;;;;5074677;28;20448;-61
2023/09/03 03:10:14;;;;;;;;;;;;;;;;;;5078673;28;19942;-62
2023/09/03 03:12:40;;;;;;;;;;;;;;;;;;5055992;28;20297;-62
2023/09/03 03:15:06;;;;;;;;;;;;;;;;;;5084525;28;19972;-62
2023/09/03 03:17:32;;;;;;;;;;;;;;;;;;5079445;28;19924;-62
2023/09/03 03:19:58;;;;;;;;;;;;;;;;;;5081798;28;19957;-61
2023/09/03 03:22:24;;;;;;;;;;;;;;;;;;5074230;28;19974;-62
2023/09/03 03:24:50;;;;;;;;;;;;;;;;;;5079386;28;19924;-62
2023/09/03 03:27:16;;;;;;;;;;;;;;;;;;5058742;28;20255;-62
2023/09/03 03:29:42;;;;;;;;;;;;;;;;;;5076921;28;19925;-62
2023/09/03 03:32:08;;;;;;;;;;;;;;;;;;5077159;28;19929;-62
2023/09/03 03:34:34;;;;;;;;;;;;;;;;;;5075998;28;20482;-62
2023/09/03 03:37:00;;;;;;;;;;;;;;;;;;5080207;28;19929;-62
2023/09/03 03:39:26;;;;;;;;;;;;;;;;;;5075041;28;19929;-62
2023/09/03 03:41:52;;;;;;;;;;;;;;;;;;5077862;28;20566;-62
2023/09/03 03:44:18;;;;;;;;;;;;;;;;;;5077960;28;19968;-62
2023/09/03 03:46:44;;;;;;;;;;;;;;;;;;5077601;28;19924;-62
2023/09/03 03:49:09;;;;;;;;;;;;;;;;;;5055851;28;19997;-62
2023/09/03 03:51:35;;;;;;;;;;;;;;;;;;5074663;28;19924;-62
2023/09/03 03:54:04;;;;;;;;;;;;;;;;;;5056755;28;19973;-62
2023/09/03 03:56:30;;;;;;;;;;;;;;;;;;5058613;28;19925;-62
2023/09/03 03:58:56;;;;;;;;;;;;;;;;;;5073526;28;19931;-62
2023/09/03 04:01:25;;;;;;;;;;;;;;;;;;5043234;28;19927;-62
2023/09/03 04:03:50;;;;;;;;;;;;;;;;;;5075894;28;20388;-62
2023/09/03 04:06:16;;;;;;;;;;;;;;;;;;5076183;28;19936;-62
2023/09/03 04:08:45;;;;;;;;;;;;;;;;;;5075705;28;19928;-62
2023/09/03 04:11:11;;;;;;;;;;;;;;;;;;5075051;28;19940;-62
2023/09/03 04:13:37;;;;;;;;;;;;;;;;;;5077353;28;19928;-62
2023/09/03 04:16:03;;;;;;;;;;;;;;;;;;5073525;28;19966;-62
2023/09/03 04:18:29;;;;;;;;;;;;;;;;;;5082319;28;19924;-62
2023/09/03 04:20:55;;;;;;;;;;;;;;;;;;5075054;28;20049;-62
2023/09/03 04:23:21;;;;;;;;;;;;;;;;;;5075108;28;20019;-62
2023/09/03 04:25:46;;;;;;;;;;;;;;;;;;5077881;28;20003;-62
2023/09/03 04:28:12;;;;;;;;;;;;;;;;;;5058850;28;19924;-62
2023/09/03 04:30:38;;;;;;;;;;;;;;;;;;5074813;28;19924;-62
2023/09/03 04:33:06;;;;;;;;;;;;;;;;;;5073699;28;19920;-62
2023/09/03 04:35:32;;;;;;;;;;;;;;;;;;5059939;28;19950;-62
2023/09/03 04:37:57;;;;;;;;;;;;;;;;;;5075210;28;19928;-62
2023/09/03 04:40:24;;;;;;;;;;;;;;;;;;5073808;28;19924;-62
2023/09/03 04:42:50;;;;;;;;;;;;;;;;;;5052757;28;19928;-62
2023/09/03 04:45:15;;;;;;;;;;;;;;;;;;5070914;28;19966;-62
2023/09/03 04:47:41;;;;;;;;;;;;;;;;;;5069266;28;19920;-62
2023/09/03 04:50:07;;;;;;;;;;;;;;;;;;5069973;28;20309;-62
2023/09/03 04:52:34;;;;;;;;;;;;;;;;;;5065650;28;19967;-62
2023/09/03 04:55:00;;;;;;;;;;;;;;;;;;5051338;28;19933;-62
2023/09/03 04:57:25;;;;;;;;;;;;;;;;;;5069709;28;20605;-62
2023/09/03 04:59:51;;;;;;;;;;;;;;;;;;5068155;28;19950;-62
2023/09/03 05:02:17;;;;;;;;;;;;;;;;;;5066852;28;20285;-62
2023/09/03 05:04:43;;;;;;;;;;;;;;;;;;5067680;28;19920;-62
2023/09/03 05:07:09;;;;;;;;;;;;;;;;;;5068934;28;20453;-62
2023/09/03 05:09:35;;;;;;;;;;;;;;;;;;5068762;28;19986;-62
2023/09/03 05:12:01;;;;;;;;;;;;;;;;;;5069292;28;20298;-62
2023/09/03 05:14:27;;;;;;;;;;;;;;;;;;5065345;28;19920;-62
2023/09/03 05:16:52;;;;;;;;;;;;;;;;;;5067474;28;19920;-62
2023/09/03 05:19:18;;;;;;;;;;;;;;;;;;5072519;28;19957;-62
2023/09/03 05:21:44;;;;;;;;;;;;;;;;;;5074097;28;19929;-62
2023/09/03 05:24:10;;;;;;;;;;;;;;;;;;5067865;28;19927;-62
2023/09/03 05:26:36;;;;;;;;;;;;;;;;;;5067477;28;19928;-62
2023/09/03 05:29:02;;;;;;;;;;;;;;;;;;5052812;28;19920;-62
2023/09/03 05:31:30;;;;;;;;;;;;;;;;;;5069062;28;19932;-62
2023/09/03 05:33:56;;;;;;;;;;;;;;;;;;5035215;28;19931;-62
2023/09/03 05:36:22;;;;;;;;;;;;;;;;;;5068124;28;20015;-62
2023/09/03 05:38:48;;;;;;;;;;;;;;;;;;5068274;28;20271;-62
2023/09/03 05:41:14;;;;;;;;;;;;;;;;;;5068664;28;20243;-62
2023/09/03 05:43:39;;;;;;;;;;;;;;;;;;5063777;28;20027;-62
2023/09/03 05:46:05;;;;;;;;;;;;;;;;;;5061052;28;19944;-62
2023/09/03 05:48:31;;;;;;;;;;;;;;;;;;5064739;28;19928;-62
2023/09/03 05:50:57;;;;;;;;;;;;;;;;;;5067061;28;19920;-62
2023/09/03 05:53:23;;;;;;;;;;;;;;;;;;5068212;28;19924;-62
2023/09/03 05:55:49;;;;;;;;;;;;;;;;;;5068967;28;20369;-62
2023/09/03 05:58:16;;;;;;;;;;;;;;;;;;5052656;28;19920;-62
2023/09/03 06:00:42;;;;;;;;;;;;;;;;;;5067940;28;19928;-62
2023/09/03 06:03:08;;;;;;;;;;;;;;;;;;5051598;28;19927;-62
2023/09/03 06:05:34;;;;;;;;;;;;;;;;;;5068717;28;19932;-62
2023/09/03 06:08:00;;;;;;;;;;;;;;;;;;5055390;28;19951;-62
2023/09/03 06:10:26;;;;;;;;;;;;;;;;;;5069243;28;19960;-62
2023/09/03 06:12:52;;;;;;;;;;;;;;;;;;5070387;28;19960;-62
2023/09/03 06:15:17;;;;;;;;;;;;;;;;;;5069075;28;20007;-62
2023/09/03 06:17:49;;;;;;;;;;;;;;;;;;5074210;28;19920;-62
2023/09/03 06:20:15;;;;;;;;;;;;;;;;;;5070676;28;19924;-62
2023/09/03 06:22:41;;;;;;;;;;;;;;;;;;5064819;28;19969;-62
2023/09/03 06:25:07;;;;;;;;;;;;;;;;;;5070452;28;19920;-62
2023/09/03 06:27:33;;;;;;;;;;;;;;;;;;5067675;28;19933;-62
2023/09/03 06:29:59;;;;;;;;;;;;;;;;;;5067113;28;19978;-62
2023/09/03 06:32:25;;;;;;;;;;;;;;;;;;5065873;28;20019;-62
2023/09/03 06:34:51;;;;;;;;;;;;;;;;;;5057116;28;19920;-62
2023/09/03 06:37:17;;;;;;;;;;;;;;;;;;5067964;28;19924;-62
2023/09/03 06:39:43;;;;;;;;;;;;;;;;;;5071399;28;19927;-62
2023/09/03 06:42:09;;;;;;;;;;;;;;;;;;5067917;28;19921;-62
2023/09/03 06:44:35;;;;;;;;;;;;;;;;;;5073091;28;20015;-62
2023/09/03 06:47:01;;;;;;;;;;;;;;;;;;5044642;28;19924;-62
2023/09/03 06:49:26;;;;;;;;;;;;;;;;;;5068144;28;20361;-62
2023/09/03 06:51:52;;;;;;;;;;;;;;;;;;5069790;28;19929;-63
2023/09/03 06:54:18;;;;;;;;;;;;;;;;;;5063117;28;20399;-62
2023/09/03 06:56:45;;;;;;;;;;;;;;;;;;5071719;28;19924;-60
2023/09/03 06:59:11;;;;;;;;;;;;;;;;;;5072097;28;19956;-60
2023/09/03 07:01:37;;;;;;;;;;;;;;;;;;5076408;28;20365;-60
2023/09/03 07:04:03;;;;;;;;;;;;;;;;;;5057130;28;19925;-60
2023/09/03 07:06:29;;;;;;;;;;;;;;;;;;5068942;28;19927;-60
2023/09/03 07:08:55;;;;;;;;;;;;;;;;;;5067336;28;19929;-61
2023/09/03 07:11:21;;;;;;;;;;;;;;;;;;5069558;28;19924;-61
2023/09/03 07:13:49;;;;;;;;;;;;;;;;;;5051327;28;22299;-60
2023/09/03 07:16:15;;;;;;;;;;;;;;;;;;5070920;28;19940;-61
2023/09/03 07:18:41;;;;;;;;;;;;;;;;;;5069925;28;19920;-61
2023/09/03 07:21:06;;;;;;;;;;;;;;;;;;5069358;28;19921;-61
2023/09/03 07:23:32;;;;;;;;;;;;;;;;;;5070062;28;19943;-61
2023/09/03 07:25:58;;;;;;;;;;;;;;;;;;5067960;28;19971;-61
2023/09/03 07:28:24;;;;;;;;;;;;;;;;;;5065094;28;19924;-61
2023/09/03 07:30:50;;;;;;;;;;;;;;;;;;5071636;28;19950;-61
2023/09/03 07:33:16;;;;;;;;;;;;;;;;;;5068948;28;19956;-61
2023/09/03 07:35:42;;;;;;;;;;;;;;;;;;5061476;28;20030;-61
2023/09/03 07:38:07;;;;;;;;;;;;;;;;;;5070569;28;19928;-61
2023/09/03 07:40:33;;;;;;;;;;;;;;;;;;5069437;28;19946;-61
2023/09/03 07:42:59;;;;;;;;;;;;;;;;;;5072094;28;19924;-61
2023/09/03 07:45:25;;;;;;;;;;;;;;;;;;5034310;28;20388;-61
2023/09/03 07:47:51;;;;;;;;;;;;;;;;;;5069765;28;20020;-61
2023/09/03 07:50:17;;;;;;;;;;;;;;;;;;5067860;28;19920;-61
2023/09/03 07:52:43;;;;;;;;;;;;;;;;;;5065918;28;20277;-61
2023/09/03 07:55:09;;;;;;;;;;;;;;;;;;5067095;28;20732;-60
2023/09/03 07:57:35;;;;;;;;;;;;;;;;;;5069383;28;19928;-61
2023/09/03 08:00:01;;;;;;;;;;;;;;;;;;5072784;28;19963;-61
2023/09/03 08:02:26;;;;;;;;;;;;;;;;;;5068211;28;19926;-61
2023/09/03 08:04:53;;;;;;;;;;;;;;;;;;5049284;28;19928;-61
2023/09/03 08:07:19;;;;;;;;;;;;;;;;;;5069032;28;19920;-61
2023/09/03 08:09:45;;;;;;;;;;;;;;;;;;5059805;28;19977;-60
2023/09/03 08:12:11;;;;;;;;;;;;;;;;;;5068961;28;19928;-61
2023/09/03 08:14:37;;;;;;;;;;;;;;;;;;5058324;28;19929;-61
2023/09/03 08:17:03;;;;;;;;;;;;;;;;;;5060910;28;20381;-61
2023/09/03 08:19:29;;;;;;;;;;;;;;;;;;5070523;28;19929;-61
2023/09/03 08:21:55;;;;;;;;;;;;;;;;;;5052212;28;19924;-61
2023/09/03 08:24:22;;;;;;;;;;;;;;;;;;5071417;28;19920;-61
2023/09/03 08:26:48;;;;;;;;;;;;;;;;;;5068215;28;19924;-61
2023/09/03 08:29:14;;;;;;;;;;;;;;;;;;5064097;28;20513;-61
2023/09/03 08:31:39;;;;;;;;;;;;;;;;;;5067300;28;19928;-61
2023/09/03 08:34:05;;;;;;;;;;;;;;;;;;5067606;28;19985;-61
2023/09/03 08:36:32;;;;;;;;;;;;;;;;;;5067917;28;19927;-61
2023/09/03 08:38:58;;;;;;;;;;;;;;;;;;5068371;28;20312;-61
2023/09/03 08:41:24;;;;;;;;;;;;;;;;;;5068991;28;19921;-61
2023/09/03 08:43:50;;;;;;;;;;;;;;;;;;5074973;28;19924;-61
2023/09/03 08:46:16;;;;;;;;;;;;;;;;;;5069496;28;19947;-61
2023/09/03 08:48:42;;;;;;;;;;;;;;;;;;5066898;28;19962;-61
2023/09/03 08:51:08;;;;;;;;;;;;;;;;;;5070411;28;20406;-61
2023/09/03 08:53:34;;;;;;;;;;;;;;;;;;5066067;28;19927;-61
2023/09/03 08:56:00;;;;;;;;;;;;;;;;;;5071317;28;20723;-62
2023/09/03 08:58:25;;;;;;;;;;;;;;;;;;5063546;28;19921;-62
2023/09/03 09:00:51;;;;;;;;;;;;;;;;;;5065426;28;19974;-62
2023/09/03 09:03:17;;;;;;;;;;;;;;;;;;5064597;28;20660;-62
2023/09/03 09:05:45;;;;;;;;;;;;;;;;;;5069897;28;19930;-61
2023/09/03 09:08:11;;;;;;;;;;;;;;;;;;5068642;28;19999;-62
2023/09/03 09:10:37;;;;;;;;;;;;;;;;;;5067668;28;19928;-62
2023/09/03 09:13:03;;;;;;;;;;;;;;;;;;5068959;28;19940;-62
2023/09/03 09:15:29;;;;;;;;;;;;;;;;;;5068660;28;19924;-62
2023/09/03 09:17:55;;;;;;;;;;;;;;;;;;5071110;28;19924;-62
2023/09/03 09:20:21;;;;;;;;;;;;;;;;;;5069979;28;19986;-62
2023/09/03 09:22:46;;;;;;;;;;;;;;;;;;5068836;28;19920;-62
2023/09/03 09:25:12;;;;;;;;;;;;;;;;;;5065675;28;20323;-62
2023/09/03 09:27:38;;;;;;;;;;;;;;;;;;5066783;28;19931;-62
2023/09/03 09:30:04;;;;;;;;;;;;;;;;;;5067303;28;19924;-62
2023/09/03 09:32:30;;;;;;;;;;;;;;;;;;5069775;28;20011;-62
2023/09/03 09:34:56;;;;;;;;;;;;;;;;;;5068603;28;20018;-62
2023/09/03 09:37:22;;;;;;;;;;;;;;;;;;5068495;28;19928;-62
2023/09/03 09:39:48;;;;;;;;;;;;;;;;;;5051210;28;19970;-61
2023/09/03 09:42:18;;;;;;;;;;;;;;;;;;5045488;28;22532;-61
2023/09/03 09:44:44;;;;;;;;;;;;;;;;;;5062275;28;19924;-62
2023/09/03 09:47:10;;;;;;;;;;;;;;;;;;5064500;28;19928;-61
2023/09/03 09:49:36;;;;;;;;;;;;;;;;;;5068369;28;19920;-62
2023/09/03 09:52:01;;;;;;;;;;;;;;;;;;5044826;28;20413;-61
2023/09/03 09:54:27;;;;;;;;;;;;;;;;;;5059686;28;19925;-61
2023/09/03 09:56:53;;;;;;;;;;;;;;;;;;5044403;28;20324;-61
2023/09/03 09:59:20;;;;;;;;;;;;;;;;;;5057981;28;19936;-61
2023/09/03 10:01:46;;;;;;;;;;;;;;;;;;5043791;28;19924;-61
2023/09/03 10:04:12;;;;;;;;;;;;;;;;;;5061834;28;19928;-61
2023/09/03 10:06:38;;;;;;;;;;;;;;;;;;5063376;28;20302;-62
2023/09/03 10:09:04;;;;;;;;;;;;;;;;;;5070636;28;19978;-62
2023/09/03 10:11:30;;;;;;;;;;;;;;;;;;5064450;28;19932;-61
2023/09/03 10:13:56;;;;;;;;;;;;;;;;;;5063722;28;19990;-62
2023/09/03 10:16:22;;;;;;;;;;;;;;;;;;5061952;28;20011;-62
2023/09/03 10:18:48;;;;;;;;;;;;;;;;;;5074314;28;19971;-62
2023/09/03 10:21:14;;;;;;;;;;;;;;;;;;5072579;28;20437;-62
2023/09/03 10:23:40;;;;;;;;;;;;;;;;;;5084665;22;20320;-62
2023/09/03 10:26:06;;;;;;;;;;;;;;;;;;5052340;28;19929;-62
2023/09/03 10:28:32;;;;;;;;;;;;;;;;;;5054217;28;19933;-62
2023/09/03 10:30:58;;;;;;;;;;;;;;;;;;5052185;28;19925;-62
2023/09/03 10:33:24;;;;;;;;;;;;;;;;;;5050097;28;19932;-62
2023/09/03 10:35:50;;;;;;;;;;;;;;;;;;5056038;28;19933;-61
2023/09/03 10:38:16;;;;;;;;;;;;;;;;;;5059520;28;20370;-61
2023/09/03 10:40:42;;;;;;;;;;;;;;;;;;5053191;28;20015;-62
2023/09/03 10:43:07;;;;;;;;;;;;;;;;;;5066864;28;19928;-62
2023/09/03 10:45:33;;;;;;;;;;;;;;;;;;5049661;28;19931;-62
2023/09/03 10:48:00;;;;;;;;;;;;;;;;;;5045157;28;19925;-61
2023/09/03 10:50:26;;;;;;;;;;;;;;;;;;5065111;28;20017;-62
2023/09/03 10:52:52;;;;;;;;;;;;;;;;;;5050502;28;19994;-62
2023/09/03 10:55:19;;;;;;;;;;;;;;;;;;5051519;28;19929;-62
2023/09/03 10:57:45;;;;;;;;;;;;;;;;;;5052170;28;19921;-62
2023/09/03 11:00:11;;;;;;;;;;;;;;;;;;5049170;28;19932;-61
2023/09/03 11:02:36;;;;;;;;;;;;;;;;;;5048845;28;19932;-62
2023/09/03 11:05:02;;;;;;;;;;;;;;;;;;5050248;28;19921;-62
2023/09/03 11:07:28;;;;;;;;;;;;;;;;;;5047583;28;20268;-62
2023/09/03 11:09:54;;;;;;;;;;;;;;;;;;5052152;28;19971;-61
2023/09/03 11:12:20;;;;;;;;;;;;;;;;;;5051175;28;20273;-62
2023/09/03 11:14:50;;;;;;;;;;;;;;;;;;5051132;28;19924;-62
2023/09/03 11:17:16;;;;;;;;;;;;;;;;;;5056977;28;19931;-62
2023/09/03 11:19:42;;;;;;;;;;;;;;;;;;5039420;28;20011;-62
2023/09/03 11:22:08;;;;;;;;;;;;;;;;;;5050816;28;20294;-61
2023/09/03 11:24:33;;;;;;;;;;;;;;;;;;5049937;28;19927;-62
2023/09/03 11:26:59;;;;;;;;;;;;;;;;;;5048800;28;20015;-62
2023/09/03 11:29:25;;;;;;;;;;;;;;;;;;5052214;28;19920;-62
2023/09/03 11:31:51;;;;;;;;;;;;;;;;;;5047656;28;19920;-62
2023/09/03 11:34:17;;;;;;;;;;;;;;;;;;5050790;28;19936;-62
2023/09/03 11:36:43;;;;;;;;;;;;;;;;;;5045801;28;20010;-61
2023/09/03 11:39:09;;;;;;;;;;;;;;;;;;5042670;28;19921;-62
2023/09/03 11:41:35;;;;;;;;;;;;;;;;;;5037331;28;19921;-62
2023/09/03 11:44:00;;;;;;;;;;;;;;;;;;5048705;28;19947;-62
2023/09/03 11:46:26;;;;;;;;;;;;;;;;;;5051758;28;20715;-62
2023/09/03 11:48:57;;;;;;;;;;;;;;;;;;5035530;28;19925;-62
2023/09/03 11:51:23;;;;;;;;;;;;;;;;;;5046249;28;19964;-62
2023/09/03 11:53:49;;;;;;;;;;;;;;;;;;5049722;28;19978;-62
2023/09/03 11:56:15;;;;;;;;;;;;;;;;;;5045795;28;19928;-62
2023/09/03 11:58:41;;;;;;;;;;;;;;;;;;5039911;28;19928;-61
2023/09/03 12:01:07;;;;;;;;;;;;;;;;;;5042001;28;19930;-62
2023/09/03 12:03:33;;;;;;;;;;;;;;;;;;5042260;28;19948;-62
2023/09/03 12:06:00;;;;;;;;;;;;;;;;;;5050669;28;19929;-62
2023/09/03 12:08:26;;;;;;;;;;;;;;;;;;5045643;28;20366;-62
2023/09/03 12:10:52;;;;;;;;;;;;;;;;;;5050915;28;19974;-62
2023/09/03 12:13:18;;;;;;;;;;;;;;;;;;5051217;28;19920;-62
2023/09/03 12:15:44;;;;;;;;;;;;;;;;;;5050985;28;20380;-62
2023/09/03 12:18:10;;;;;;;;;;;;;;;;;;5028954;28;19920;-61
2023/09/03 12:20:36;;;;;;;;;;;;;;;;;;5048610;28;20549;-62
2023/09/03 12:23:02;;;;;;;;;;;;;;;;;;5039523;28;20366;-62
2023/09/03 12:25:27;;;;;;;;;;;;;;;;;;5045927;28;19933;-61
2023/09/03 12:27:53;;;;;;;;;;;;;;;;;;5050020;28;19989;-61
2023/09/03 12:30:19;;;;;;;;;;;;;;;;;;5044659;28;19921;-62
2023/09/03 12:32:45;;;;;;;;;;;;;;;;;;5036141;28;20008;-61
2023/09/03 12:35:11;;;;;;;;;;;;;;;;;;5016673;28;20461;-62
2023/09/03 12:37:37;;;;;;;;;;;;;;;;;;5049863;28;19925;-61
2023/09/03 12:40:03;;;;;;;;;;;;;;;;;;5050950;28;20362;-61
2023/09/03 12:42:29;;;;;;;;;;;;;;;;;;5036257;28;19932;-62
2023/09/03 12:44:55;;;;;;;;;;;;;;;;;;5051337;28;19921;-61
2023/09/03 12:47:21;;;;;;;;;;;;;;;;;;5043194;28;20246;-62
2023/09/03 12:49:47;;;;;;;;;;;;;;;;;;5028039;28;19966;-62
2023/09/03 12:52:13;;;;;;;;;;;;;;;;;;5050296;28;19928;-62
2023/09/03 12:54:39;;;;;;;;;;;;;;;;;;5051999;28;19951;-62
2023/09/03 12:57:05;;;;;;;;;;;;;;;;;;5053851;28;19939;-62
2023/09/03 12:59:31;;;;;;;;;;;;;;;;;;5055980;28;20281;-62
2023/09/03 13:01:57;;;;;;;;;;;;;;;;;;5046094;28;19924;-62
2023/09/03 13:04:23;;;;;;;;;;;;;;;;;;5034157;28;19920;-62
2023/09/03 13:06:49;;;;;;;;;;;;;;;;;;5041261;28;19921;-62
2023/09/03 13:09:15;;;;;;;;;;;;;;;;;;5029820;28;19943;-62
2023/09/03 13:11:41;;;;;;;;;;;;;;;;;;5032065;28;20015;-62
2023/09/03 13:14:07;;;;;;;;;;;;;;;;;;5051371;28;19931;-62
2023/09/03 13:16:33;;;;;;;;;;;;;;;;;;5036049;28;19959;-62
2023/09/03 13:18:59;;;;;;;;;;;;;;;;;;5044701;28;19971;-62
2023/09/03 13:21:25;;;;;;;;;;;;;;;;;;5033595;28;19979;-62
2023/09/03 13:23:51;;;;;;;;;;;;;;;;;;5030140;28;19971;-62
2023/09/03 13:26:17;;;;;;;;;;;;;;;;;;5051003;28;19925;-62
2023/09/03 13:28:42;;;;;;;;;;;;;;;;;;5049204;28;20386;-62
2023/09/03 13:31:08;;;;;;;;;;;;;;;;;;5051196;28;19928;-62
2023/09/03 13:33:34;;;;;;;;;;;;;;;;;;5049222;28;20011;-62
2023/09/03 13:36:00;;;;;;;;;;;;;;;;;;5049548;28;19921;-62
2023/09/03 13:38:26;;;;;;;;;;;;;;;;;;5050962;28;19925;-62
2023/09/03 13:40:52;;;;;;;;;;;;;;;;;;5049239;28;19921;-62
2023/09/03 13:43:18;;;;;;;;;;;;;;;;;;5037995;28;19925;-62
2023/09/03 13:45:44;;;;;;;;;;;;;;;;;;5046226;28;19928;-62
2023/09/03 13:48:09;;;;;;;;;;;;;;;;;;5052029;28;20540;-62
2023/09/03 13:50:35;;;;;;;;;;;;;;;;;;5053500;28;19956;-62
2023/09/03 13:53:01;;;;;;;;;;;;;;;;;;5052018;28;19925;-61
2023/09/03 13:55:27;;;;;;;;;;;;;;;;;;5053362;28;19944;-62
2023/09/03 13:57:53;;;;;;;;;;;;;;;;;;5055011;28;19932;-62
2023/09/03 14:00:19;;;;;;;;;;;;;;;;;;5052873;28;19920;-61
2023/09/03 14:02:45;;;;;;;;;;;;;;;;;;5052491;28;19947;-61
2023/09/03 14:05:11;;;;;;;;;;;;;;;;;;5051860;28;19921;-62
2023/09/03 14:07:37;;;;;;;;;;;;;;;;;;5039459;28;20501;-61
2023/09/03 14:10:03;;;;;;;;;;;;;;;;;;5048110;28;19921;-61
2023/09/03 14:12:29;;;;;;;;;;;;;;;;;;5053099;28;19928;-61
2023/09/03 14:14:55;;;;;;;;;;;;;;;;;;5054602;28;20670;-62
2023/09/03 14:17:21;;;;;;;;;;;;;;;;;;5050386;28;19952;-62
2023/09/03 14:19:47;;;;;;;;;;;;;;;;;;5054122;28;20286;-62
2023/09/03 14:22:13;;;;;;;;;;;;;;;;;;5038923;28;19928;-62
2023/09/03 14:24:38;;;;;;;;;;;;;;;;;;5054206;28;19943;-61
2023/09/03 14:27:04;;;;;;;;;;;;;;;;;;5038025;28;19978;-62
2023/09/03 14:29:30;;;;;;;;;;;;;;;;;;5054197;28;19924;-61
2023/09/03 14:31:56;;;;;;;;;;;;;;;;;;5052297;28;20332;-61
2023/09/03 14:34:22;;;;;;;;;;;;;;;;;;5051753;28;19940;-61
2023/09/03 14:36:48;;;;;;;;;;;;;;;;;;5054403;28;19925;-61
2023/09/03 14:39:14;;;;;;;;;;;;;;;;;;5051996;28;19921;-61
2023/09/03 14:41:40;;;;;;;;;;;;;;;;;;5040059;28;19967;-61
2023/09/03 14:44:06;;;;;;;;;;;;;;;;;;5046453;28;20472;-62
2023/09/03 14:46:32;;;;;;;;;;;;;;;;;;5045050;28;19924;-62
2023/09/03 14:48:58;;;;;;;;;;;;;;;;;;5025283;28;19971;-62
2023/09/03 14:51:24;;;;;;;;;;;;;;;;;;5053358;28;19921;-61
2023/09/03 14:53:51;;;;;;;;;;;;;;;;;;5049749;28;19929;-61
2023/09/03 14:56:17;;;;;;;;;;;;;;;;;;5046300;28;20000;-61
2023/09/03 14:58:43;;;;;;;;;;;;;;;;;;5038344;28;20036;-61
2023/09/03 15:01:09;;;;;;;;;;;;;;;;;;5050789;28;19924;-60
2023/09/03 15:03:34;;;;;;;;;;;;;;;;;;5051453;28;19929;-61
2023/09/03 15:06:00;;;;;;;;;;;;;;;;;;5050955;28;19967;-60
2023/09/03 15:08:26;;;;;;;;;;;;;;;;;;5053519;28;19921;-60
2023/09/03 15:10:53;;;;;;;;;;;;;;;;;;5043287;28;20388;-60
2023/09/03 15:13:19;;;;;;;;;;;;;;;;;;5053507;28;19927;-60
2023/09/03 15:15:45;;;;;;;;;;;;;;;;;;5041322;28;19929;-60
2023/09/03 15:18:11;;;;;;;;;;;;;;;;;;5049048;28;20676;-60
2023/09/03 15:20:37;;;;;;;;;;;;;;;;;;5041650;28;19932;-60
2023/09/03 15:23:03;;;;;;;;;;;;;;;;;;5053917;28;20325;-60
2023/09/03 15:25:29;;;;;;;;;;;;;;;;;;5046620;28;19929;-60
2023/09/03 15:27:55;;;;;;;;;;;;;;;;;;5044713;28;19921;-60
2023/09/03 15:30:21;;;;;;;;;;;;;;;;;;5026932;28;19925;-60
2023/09/03 15:32:47;;;;;;;;;;;;;;;;;;5050754;28;19928;-60
2023/09/03 15:35:13;;;;;;;;;;;;;;;;;;5010903;28;20290;-61
2023/09/03 15:37:39;;;;;;;;;;;;;;;;;;5052424;28;19920;-61
2023/09/03 15:40:05;;;;;;;;;;;;;;;;;;5046586;28;19979;-61
2023/09/03 15:42:31;;;;;;;;;;;;;;;;;;5054053;28;19967;-61
2023/09/03 15:44:57;;;;;;;;;;;;;;;;;;5050236;28;19925;-61
2023/09/03 15:47:23;;;;;;;;;;;;;;;;;;5021768;28;20404;-61
2023/09/03 15:49:49;;;;;;;;;;;;;;;;;;5047042;28;19978;-61
2023/09/03 15:52:15;;;;;;;;;;;;;;;;;;5042773;28;20506;-61
2023/09/03 15:54:41;;;;;;;;;;;;;;;;;;5045687;28;20042;-61
2023/09/03 15:57:08;;;;;;;;;;;;;;;;;;5051550;28;19921;-61
2023/09/03 15:59:34;;;;;;;;;;;;;;;;;;5046960;28;19979;-61
2023/09/03 16:02:00;;;;;;;;;;;;;;;;;;5048529;28;19925;-61
2023/09/03 16:04:26;;;;;;;;;;;;;;;;;;5049480;28;20537;-62
2023/09/03 16:06:52;;;;;;;;;;;;;;;;;;5046902;28;19925;-62
2023/09/03 16:09:18;;;;;;;;;;;;;;;;;;5049483;28;19925;-61
2023/09/03 16:11:44;;;;;;;;;;;;;;;;;;5049629;28;20393;-61
2023/09/03 16:14:10;;;;;;;;;;;;;;;;;;5037299;28;19933;-61
2023/09/03 16:16:36;;;;;;;;;;;;;;;;;;5050390;28;20015;-61
2023/09/03 16:19:02;;;;;;;;;;;;;;;;;;5049421;28;20290;-61
2023/09/03 16:21:27;;;;;;;;;;;;;;;;;;5048698;28;19924;-61
2023/09/03 16:23:53;;;;;;;;;;;;;;;;;;5050200;28;19921;-61
2023/09/03 16:26:19;;;;;;;;;;;;;;;;;;5048998;28;20043;-61
2023/09/03 16:28:45;;;;;;;;;;;;;;;;;;5050095;28;19921;-61
2023/09/03 16:31:11;;;;;;;;;;;;;;;;;;5048011;28;19920;-61
2023/09/03 16:33:37;;;;;;;;;;;;;;;;;;5048550;28;19940;-61
2023/09/03 16:36:03;;;;;;;;;;;;;;;;;;5047323;28;20419;-61